Terminal Aerodrome Forecast
Issued by NWS

Home | Current Version | Previous Version | Text Only | Print | Product List | Glossary On
Versions: 1 2 3 4 5 6 7 8 9 10 11 12
000
FTUS42 KMLB 011700
TAFLEE
TAF
KLEE 011720Z 0118/0218 VRB04KT P6SM SCT040 SCT250
     FM012000 23005KT P6SM VCTS BKN040CB
     FM020000 13006KT P6SM SCT040 BKN100 OVC120
     FM021400 VRB03KT P6SM FEW020 SCT250=

USA.gov is the U.S. government's official web portal to all federal, state and local government web resources and services.